Time;durP1;ratioP1;P1;durP2;ratioP2;P2;SDS_P1;SDS_P2;PMS_P1;PMS_P2;Temp;Humidity;BMP_temperature;BMP_pressure;BME280_temperature;BME280_humidity;BME280_pressure;Samples;Min_cycle;Max_cycle;Signal;HPM_P1;HPM_P2
2022/11/08 00:01:39;;;;;;;2.40;2.30;;;8.70;99.90;;;;;;5064256;28;20489;-74
2022/11/08 00:04:10;;;;;;;2.50;2.40;;;8.70;99.90;;;;;;5065411;28;20021;-74
2022/11/08 00:14:49;;;;;;;2.50;2.40;;;8.80;99.90;;;;;;5054323;28;20093;-74
2022/11/08 00:17:16;;;;;;;2.70;2.60;;;8.70;99.90;;;;;;5062177;28;20033;-74
2022/11/08 00:19:42;;;;;;;2.58;2.47;;;8.70;99.90;;;;;;5065562;28;20029;-74
2022/11/08 00:22:12;;;;;;;3.15;2.97;;;8.60;99.90;;;;;;5060612;28;20024;-74
2022/11/08 00:24:38;;;;;;;2.70;2.60;;;8.60;99.90;;;;;;5057169;28;20025;-74
2022/11/08 00:27:06;;;;;;;2.80;2.70;;;8.50;99.90;;;;;;5063108;28;20021;-74
2022/11/08 00:29:34;;;;;;;2.70;2.60;;;8.40;99.90;;;;;;5052914;28;20036;-73
2022/11/08 00:32:00;;;;;;;3.03;2.92;;;8.40;99.90;;;;;;5061050;28;20029;-73
2022/11/08 00:34:25;;;;;;;2.60;2.50;;;8.40;99.90;;;;;;5064917;28;20444;-75
2022/11/08 00:36:52;;;;;;;3.08;2.97;;;8.40;99.90;;;;;;5060711;28;20039;-74
2022/11/08 00:39:18;;;;;;;2.92;2.83;;;8.30;99.90;;;;;;5058389;28;20111;-74
2022/11/08 00:41:43;;;;;;;3.47;3.38;;;8.30;99.90;;;;;;5061246;28;20490;-74
2022/11/08 00:44:10;;;;;;;2.40;2.30;;;8.30;99.90;;;;;;5054038;28;20024;-74
2022/11/08 00:46:36;;;;;;;2.70;2.60;;;8.30;99.90;;;;;;5062968;28;20029;-73
2022/11/08 00:49:02;;;;;;;2.80;2.70;;;8.20;99.90;;;;;;5052378;28;20021;-74
2022/11/08 00:51:28;;;;;;;2.88;2.78;;;8.10;99.90;;;;;;5062818;28;20086;-74
2022/11/08 00:53:53;;;;;;;3.58;3.47;;;8.10;99.90;;;;;;5075466;28;20036;-74
2022/11/08 00:56:19;;;;;;;3.15;3.05;;;8.10;99.90;;;;;;5063591;28;20024;-74
2022/11/08 00:58:44;;;;;;;3.15;3.05;;;8.10;99.90;;;;;;5052810;28;20032;-74
2022/11/08 01:01:12;;;;;;;2.40;2.30;;;8.00;99.90;;;;;;5051718;28;20025;-74
2022/11/08 01:03:38;;;;;;;2.88;2.78;;;7.90;99.90;;;;;;5078373;28;20021;-74
2022/11/08 01:06:05;;;;;;;3.05;2.95;;;7.90;99.90;;;;;;5059546;28;20112;-75
2022/11/08 01:08:31;;;;;;;2.95;2.85;;;7.90;99.90;;;;;;5050002;28;20025;-73
2022/11/08 01:11:02;;;;;;;2.85;2.75;;;7.70;99.90;;;;;;5051553;28;20074;-74
2022/11/08 01:13:28;;;;;;;2.97;2.88;;;7.80;99.90;;;;;;5063825;28;20086;-74
2022/11/08 01:15:53;;;;;;;2.97;2.88;;;7.70;99.90;;;;;;5051549;28;20112;-73
2022/11/08 01:18:19;;;;;;;7.40;6.78;;;7.70;99.90;;;;;;5077313;28;20028;-73
2022/11/08 01:20:47;;;;;;;2.90;2.80;;;7.70;99.90;;;;;;5091087;28;20031;-74
2022/11/08 01:23:13;;;;;;;3.28;3.17;;;7.80;99.90;;;;;;5081444;28;20024;-74
2022/11/08 01:25:42;;;;;;;2.78;2.67;;;7.60;99.90;;;;;;5059746;28;20022;-74
2022/11/08 01:28:08;;;;;;;2.92;2.83;;;7.60;99.90;;;;;;5056430;28;20028;-73
2022/11/08 01:30:39;;;;;;;2.85;2.75;;;7.60;99.90;;;;;;5058075;28;20025;-73
2022/11/08 01:33:05;;;;;;;3.75;3.55;;;7.60;99.90;;;;;;5077103;28;20027;-74
2022/11/08 01:35:32;;;;;;;3.00;2.90;;;7.60;99.90;;;;;;5088503;28;20362;-74
2022/11/08 01:37:58;;;;;;;3.00;2.90;;;7.40;99.90;;;;;;5066100;28;20033;-74
2022/11/08 01:40:25;;;;;;;3.05;2.95;;;7.50;99.90;;;;;;5063988;28;20078;-73
2022/11/08 01:42:50;;;;;;;2.55;2.45;;;7.50;99.90;;;;;;5065486;28;20021;-73
2022/11/08 01:45:54;;;;;;;2.50;2.40;;;7.50;99.90;;;;;;5066851;28;20445;-73
2022/11/08 01:48:21;;;;;;;2.97;2.88;;;7.60;99.90;;;;;;5066174;28;20104;-74
2022/11/08 01:50:46;;;;;;;3.03;2.92;;;7.60;99.90;;;;;;5060389;28;20024;-74
2022/11/08 01:53:12;;;;;;;2.50;2.40;;;7.60;99.90;;;;;;5063538;28;20033;-75
2022/11/08 01:55:38;;;;;;;2.70;2.60;;;7.60;99.90;;;;;;5073149;28;20028;-74
2022/11/08 01:58:09;;;;;;;2.53;2.42;;;7.60;99.90;;;;;;5073511;28;20025;-74
2022/11/08 02:00:37;;;;;;;2.80;2.70;;;7.50;99.90;;;;;;5069196;28;20471;-73
2022/11/08 02:03:06;;;;;;;2.80;2.70;;;7.50;99.90;;;;;;5067626;28;20032;-74
2022/11/08 02:05:33;;;;;;;3.17;3.08;;;7.60;99.90;;;;;;5061463;28;20078;-74
2022/11/08 02:08:09;;;;;;;2.70;2.60;;;7.60;99.90;;;;;;5073363;28;20439;-74
2022/11/08 02:10:38;;;;;;;2.80;2.70;;;7.60;99.90;;;;;;5054887;28;20025;-74
2022/11/08 02:13:07;;;;;;;2.97;2.88;;;7.60;99.90;;;;;;5054775;28;20120;-74
2022/11/08 02:15:33;;;;;;;2.75;2.65;;;7.60;99.90;;;;;;5064964;28;20029;-73
2022/11/08 02:17:59;;;;;;;2.92;2.83;;;7.50;99.90;;;;;;5053595;28;20448;-74
2022/11/08 02:20:25;;;;;;;3.03;2.92;;;7.50;99.90;;;;;;5062995;28;20036;-74
2022/11/08 02:23:23;;;;;;;2.60;2.50;;;7.50;99.90;;;;;;5061034;28;20379;-74
2022/11/08 02:25:49;;;;;;;3.30;3.20;;;7.50;99.90;;;;;;5057006;28;20044;-74
2022/11/08 02:28:15;;;;;;;2.85;2.75;;;7.50;99.90;;;;;;5066404;28;20029;-74
2022/11/08 02:30:41;;;;;;;2.50;2.40;;;7.50;99.90;;;;;;5066934;28;20525;-74
2022/11/08 02:33:18;;;;;;;2.70;2.60;;;7.50;99.90;;;;;;5060937;28;20121;-74
2022/11/08 02:35:53;;;;;;;2.90;2.80;;;7.50;99.90;;;;;;5060826;28;20082;-74
2022/11/08 02:38:19;;;;;;;3.40;3.30;;;7.60;99.90;;;;;;5065236;28;20490;-76
2022/11/08 02:40:50;;;;;;;3.05;2.95;;;7.50;99.90;;;;;;5067674;28;20037;-76
2022/11/08 02:43:16;;;;;;;2.80;2.70;;;7.40;99.90;;;;;;5062092;28;20017;-76
2022/11/08 02:45:41;;;;;;;2.80;2.70;;;7.30;99.90;;;;;;5060561;28;20356;-75
2022/11/08 02:48:07;;;;;;;2.83;2.72;;;7.30;99.90;;;;;;5064072;28;20102;-76
2022/11/08 02:50:33;;;;;;;2.70;2.60;;;7.30;99.90;;;;;;5067266;28;20032;-77
2022/11/08 02:52:59;;;;;;;3.50;3.40;;;7.30;99.90;;;;;;5063290;28;20098;-76
2022/11/08 02:55:24;;;;;;;2.70;2.60;;;7.30;99.90;;;;;;5056906;28;20095;-76
2022/11/08 02:57:50;;;;;;;2.85;2.75;;;7.20;99.90;;;;;;5063124;28;20067;-76
2022/11/08 03:00:15;;;;;;;3.15;3.05;;;7.20;99.90;;;;;;5060359;28;20033;-75
2022/11/08 03:02:41;;;;;;;2.90;2.80;;;7.10;99.90;;;;;;5064643;28;20032;-76
2022/11/08 03:05:07;;;;;;;2.97;2.88;;;7.10;99.90;;;;;;5067352;28;20025;-76
2022/11/08 03:07:32;;;;;;;2.88;2.78;;;7.10;99.90;;;;;;5053526;28;20078;-76
2022/11/08 03:09:58;;;;;;;2.83;2.72;;;7.10;99.90;;;;;;5067005;28;20033;-74
2022/11/08 03:12:23;;;;;;;2.53;2.42;;;7.10;99.90;;;;;;5053550;28;20035;-74
2022/11/08 03:14:49;;;;;;;2.70;2.60;;;7.00;99.90;;;;;;5067165;28;20036;-74
2022/11/08 03:17:14;;;;;;;2.85;2.75;;;7.00;99.90;;;;;;5053409;28;20024;-74
2022/11/08 03:19:40;;;;;;;2.47;2.38;;;6.90;99.90;;;;;;5066884;28;20033;-75
2022/11/08 03:22:05;;;;;;;2.75;2.65;;;6.90;99.90;;;;;;5061807;28;20426;-75
2022/11/08 03:24:32;;;;;;;2.97;2.88;;;6.90;99.90;;;;;;5059931;28;20032;-75
2022/11/08 03:26:58;;;;;;;2.80;2.70;;;7.00;99.90;;;;;;5065058;28;20021;-75
2022/11/08 03:29:23;;;;;;;2.33;2.22;;;6.90;99.90;;;;;;5066803;28;20178;-74
2022/11/08 03:31:49;;;;;;;2.85;2.75;;;6.90;99.90;;;;;;5073327;28;20032;-75
2022/11/08 03:34:15;;;;;;;2.45;2.35;;;6.90;99.90;;;;;;5070845;28;20032;-74
2022/11/08 03:36:40;;;;;;;2.80;2.70;;;7.00;99.90;;;;;;5053042;28;20115;-74
2022/11/08 03:39:06;;;;;;;2.25;2.15;;;6.90;99.90;;;;;;5052806;28;20040;-74
2022/11/08 03:41:32;;;;;;;2.30;2.20;;;6.80;99.90;;;;;;5065201;28;20025;-74
2022/11/08 03:43:57;;;;;;;2.53;2.42;;;6.80;99.90;;;;;;5067554;28;20028;-74
2022/11/08 03:46:23;;;;;;;2.35;2.25;;;6.80;99.90;;;;;;5072982;28;20029;-74
2022/11/08 03:48:48;;;;;;;2.42;2.33;;;6.70;99.90;;;;;;5058038;28;20025;-74
2022/11/08 03:51:14;;;;;;;2.53;2.42;;;6.60;99.90;;;;;;5052922;28;20029;-74
2022/11/08 03:53:39;;;;;;;2.70;2.60;;;6.60;99.90;;;;;;5067092;28;20020;-74
2022/11/08 03:56:05;;;;;;;2.60;2.50;;;6.70;99.90;;;;;;5072608;28;20029;-73
2022/11/08 03:58:31;;;;;;;2.70;2.60;;;6.70;99.90;;;;;;5072289;28;20028;-73
2022/11/08 04:00:57;;;;;;;2.70;2.60;;;6.70;99.90;;;;;;5062875;28;20083;-74
2022/11/08 04:03:22;;;;;;;2.60;2.50;;;6.80;99.90;;;;;;5057733;28;20025;-73
2022/11/08 04:05:48;;;;;;;2.72;2.63;;;6.70;99.90;;;;;;5062738;28;20037;-74
2022/11/08 04:08:14;;;;;;;2.70;2.60;;;6.70;99.90;;;;;;5067096;28;20016;-74
2022/11/08 04:10:39;;;;;;;2.83;2.72;;;6.70;99.90;;;;;;5072415;28;20036;-73
2022/11/08 04:15:54;;;;;;;3.42;3.33;;;6.80;99.90;;;;;;5061709;28;20097;-74
2022/11/08 04:21:21;;;;;;;2.83;2.72;;;6.80;99.90;;;;;;5052262;28;20059;-73
2022/11/08 04:23:48;;;;;;;2.85;2.75;;;6.80;99.90;;;;;;5052313;28;20024;-73
2022/11/08 04:26:15;;;;;;;3.00;2.90;;;6.80;99.90;;;;;;5065445;28;20025;-73
2022/11/08 04:28:41;;;;;;;3.50;3.40;;;6.80;99.90;;;;;;5061384;28;20024;-74
2022/11/08 04:31:12;;;;;;;3.30;3.20;;;6.80;99.90;;;;;;5058594;28;20036;-74
2022/11/08 04:33:39;;;;;;;2.90;2.80;;;6.80;99.90;;;;;;5061889;28;20064;-74
2022/11/08 04:36:08;;;;;;;2.72;2.63;;;6.70;99.90;;;;;;5054048;28;20085;-74
2022/11/08 04:38:34;;;;;;;2.60;2.50;;;6.70;99.90;;;;;;5061091;28;20021;-74
2022/11/08 04:41:02;;;;;;;2.97;2.88;;;6.70;99.90;;;;;;5065368;28;20029;-74
2022/11/08 04:43:28;;;;;;;2.88;2.78;;;6.70;99.90;;;;;;5050648;28;20025;-73
2022/11/08 04:46:02;;;;;;;3.03;2.92;;;6.70;99.90;;;;;;5065418;28;20033;-74
2022/11/08 04:48:28;;;;;;;3.22;3.13;;;6.70;99.90;;;;;;5063723;28;20117;-74
2022/11/08 04:50:53;;;;;;;3.15;3.05;;;6.70;99.90;;;;;;5057213;28;20067;-74
2022/11/08 04:53:20;;;;;;;3.05;2.95;;;6.70;99.90;;;;;;5059967;28;20044;-74
2022/11/08 04:55:45;;;;;;;3.05;2.95;;;6.70;99.90;;;;;;5061725;28;20499;-74
2022/11/08 04:58:11;;;;;;;3.33;3.22;;;6.60;99.90;;;;;;5056380;28;20094;-75
2022/11/08 05:00:36;;;;;;;2.83;2.72;;;6.60;99.90;;;;;;5065053;28;20065;-74
2022/11/08 05:03:02;;;;;;;3.30;3.20;;;6.60;99.90;;;;;;5067555;28;20111;-74
2022/11/08 05:05:27;;;;;;;3.35;3.25;;;6.50;99.90;;;;;;5058865;28;20063;-74
2022/11/08 05:07:53;;;;;;;2.85;2.75;;;6.50;99.90;;;;;;5071217;28;20036;-74
2022/11/08 05:10:19;;;;;;;3.10;3.00;;;6.50;99.90;;;;;;5051386;28;20029;-74
2022/11/08 05:12:44;;;;;;;3.03;2.92;;;6.40;99.90;;;;;;5067103;28;20094;-73
2022/11/08 05:15:11;;;;;;;2.67;2.58;;;6.50;99.90;;;;;;5066964;28;20033;-74
2022/11/08 05:17:36;;;;;;;3.00;2.90;;;6.50;99.90;;;;;;5064107;28;20032;-74
2022/11/08 05:25:32;;;;;;;2.80;2.70;;;6.30;99.90;;;;;;5073680;28;20081;-74
2022/11/08 05:27:57;;;;;;;2.80;2.70;;;6.30;99.90;;;;;;5071207;28;20017;-72
2022/11/08 05:30:23;;;;;;;2.75;2.65;;;6.20;99.90;;;;;;5054216;28;20062;-74
2022/11/08 05:32:52;;;;;;;2.80;2.70;;;6.20;99.90;;;;;;5055447;28;20056;-73
2022/11/08 05:35:20;;;;;;;2.60;2.50;;;6.10;99.90;;;;;;5055485;28;20095;-72
2022/11/08 05:37:46;;;;;;;3.42;3.33;;;6.10;99.90;;;;;;5054836;28;20029;-73
2022/11/08 05:40:11;;;;;;;3.05;2.95;;;6.10;99.90;;;;;;5055198;28;20029;-74
2022/11/08 05:42:37;;;;;;;4.03;3.92;;;6.10;99.90;;;;;;5059938;28;20483;-74
2022/11/08 05:45:03;;;;;;;3.17;3.08;;;6.10;99.90;;;;;;5062305;28;20171;-73
2022/11/08 05:47:28;;;;;;;18.27;8.40;;;6.00;99.90;;;;;;5059872;28;20032;-74
2022/11/08 05:49:54;;;;;;;2.47;2.38;;;6.10;99.90;;;;;;5080776;28;20430;-73
2022/11/08 05:52:19;;;;;;;2.47;2.38;;;6.10;99.90;;;;;;5070880;28;20083;-73
2022/11/08 05:54:45;;;;;;;2.42;2.33;;;6.10;99.90;;;;;;5066271;28;20033;-72
2022/11/08 05:57:11;;;;;;;2.42;2.33;;;6.10;99.90;;;;;;5069135;28;20033;-73
2022/11/08 05:59:36;;;;;;;2.45;2.35;;;6.00;99.90;;;;;;5065002;28;20033;-74
2022/11/08 06:02:02;;;;;;;2.50;2.40;;;6.00;99.90;;;;;;5062006;28;20031;-73
2022/11/08 06:04:27;;;;;;;3.17;3.08;;;6.00;99.90;;;;;;5074238;28;20447;-73
2022/11/08 06:06:53;;;;;;;2.60;2.50;;;5.90;99.90;;;;;;5069344;28;20025;-73
2022/11/08 06:09:18;;;;;;;2.97;2.88;;;5.90;99.90;;;;;;5063105;28;20020;-72
2022/11/08 06:11:44;;;;;;;2.83;2.72;;;5.70;99.90;;;;;;5056680;28;20036;-75
2022/11/08 06:14:09;;;;;;;3.15;3.05;;;5.80;99.90;;;;;;5054384;28;20091;-74
2022/11/08 06:16:35;;;;;;;3.53;3.28;;;5.80;99.90;;;;;;5054946;28;20029;-74
2022/11/08 06:19:00;;;;;;;2.65;2.55;;;5.80;99.90;;;;;;5053047;28;20029;-74
2022/11/08 06:21:26;;;;;;;2.65;2.55;;;5.80;99.90;;;;;;5068117;28;20017;-74
2022/11/08 06:23:53;;;;;;;2.65;2.55;;;5.80;99.90;;;;;;5054550;28;20037;-75
2022/11/08 06:26:19;;;;;;;2.45;2.35;;;5.80;99.90;;;;;;5067869;28;20013;-75
2022/11/08 06:28:45;;;;;;;2.05;2.03;;;5.80;99.90;;;;;;5062917;28;20048;-75
2022/11/08 06:31:10;;;;;;;2.30;2.20;;;5.80;99.90;;;;;;5060743;28;20525;-74
2022/11/08 06:33:36;;;;;;;3.95;3.78;;;5.90;99.90;;;;;;5073048;28;20052;-75
2022/11/08 06:36:02;;;;;;;2.45;2.35;;;5.90;99.90;;;;;;5069560;28;20095;-75
2022/11/08 06:38:27;;;;;;;2.30;2.20;;;6.00;99.90;;;;;;5063705;28;20039;-75
2022/11/08 06:40:53;;;;;;;2.45;2.35;;;5.90;99.90;;;;;;5056408;28;20029;-74
2022/11/08 06:43:18;;;;;;;2.50;2.40;;;5.90;99.90;;;;;;5052984;28;20044;-74
2022/11/08 06:45:44;;;;;;;2.28;2.17;;;5.90;99.90;;;;;;5052781;28;20028;-75
2022/11/08 06:48:09;;;;;;;2.40;2.30;;;5.90;99.90;;;;;;5052467;28;20386;-75
2022/11/08 06:50:36;;;;;;;2.08;2.05;;;6.00;99.90;;;;;;5067385;28;20091;-75
2022/11/08 06:53:06;;;;;;;2.00;2.00;;;6.10;99.90;;;;;;5053877;28;20036;-75
2022/11/08 06:55:33;;;;;;;2.30;2.20;;;6.00;99.90;;;;;;5066416;28;20040;-75
2022/11/08 06:57:59;;;;;;;2.72;2.63;;;6.00;99.90;;;;;;5064627;28;20113;-75
2022/11/08 07:00:27;;;;;;;2.83;2.72;;;6.10;99.90;;;;;;5060165;28;20066;-75
2022/11/08 07:02:58;;;;;;;9.52;5.68;;;6.00;99.90;;;;;;5073505;28;20020;-75
2022/11/08 07:05:25;;;;;;;7.97;7.47;;;6.10;99.90;;;;;;5073776;28;20029;-74
2022/11/08 07:07:51;;;;;;;2.70;2.60;;;6.30;99.90;;;;;;5073410;28;20025;-75
2022/11/08 07:10:21;;;;;;;2.50;2.40;;;6.30;99.90;;;;;;5055212;28;20225;-75
2022/11/08 07:12:47;;;;;;;2.88;2.78;;;6.30;99.90;;;;;;5065943;28;20102;-75
2022/11/08 07:15:13;;;;;;;2.55;2.45;;;6.40;99.90;;;;;;5054581;28;20064;-75
2022/11/08 07:17:39;;;;;;;2.58;2.47;;;6.50;99.90;;;;;;5053343;28;20096;-75
2022/11/08 07:20:06;;;;;;;11.35;10.27;;;6.60;99.90;;;;;;5071214;28;20025;-74
2022/11/08 07:22:31;;;;;;;2.97;2.88;;;6.70;99.90;;;;;;5072204;28;20055;-77
2022/11/08 07:24:57;;;;;;;2.50;2.40;;;6.70;99.90;;;;;;5073359;28;20052;-74
2022/11/08 07:27:22;;;;;;;2.90;2.80;;;6.80;99.90;;;;;;5073063;28;20024;-75
2022/11/08 07:29:48;;;;;;;5.05;4.82;;;6.90;99.90;;;;;;5073259;28;20029;-75
2022/11/08 07:32:13;;;;;;;2.70;2.60;;;6.90;99.90;;;;;;5071971;28;20474;-75
2022/11/08 07:34:39;;;;;;;3.05;2.95;;;6.90;99.90;;;;;;5059553;28;20033;-75
2022/11/08 07:37:04;;;;;;;2.80;2.70;;;7.00;99.90;;;;;;5072831;28;20032;-75
2022/11/08 07:39:30;;;;;;;2.70;2.60;;;7.10;99.90;;;;;;5059630;28;20032;-75
2022/11/08 07:41:55;;;;;;;2.50;2.40;;;7.20;99.90;;;;;;5060387;28;20479;-75
2022/11/08 07:44:21;;;;;;;3.17;3.08;;;7.30;99.90;;;;;;5066366;28;20037;-75
2022/11/08 07:46:46;;;;;;;2.88;2.78;;;7.40;99.90;;;;;;5065092;28;20044;-75
2022/11/08 07:49:12;;;;;;;2.92;2.83;;;7.40;99.90;;;;;;5061108;28;20021;-75
2022/11/08 07:51:37;;;;;;;3.05;2.95;;;7.50;99.90;;;;;;5062718;28;20092;-75
2022/11/08 07:54:03;;;;;;;3.17;3.08;;;7.60;99.90;;;;;;5054337;28;20024;-74
2022/11/08 07:56:29;;;;;;;3.35;3.25;;;7.60;99.90;;;;;;5053937;28;20029;-75
2022/11/08 07:58:55;;;;;;;3.50;3.40;;;7.80;99.90;;;;;;5067059;28;20032;-75
2022/11/08 08:01:20;;;;;;;2.90;2.80;;;7.80;99.90;;;;;;5065693;28;20028;-75
2022/11/08 08:03:46;;;;;;;3.13;3.03;;;7.80;99.90;;;;;;5060405;28;20062;-75
2022/11/08 08:06:11;;;;;;;2.80;2.70;;;7.90;99.90;;;;;;5062753;28;20021;-75
2022/11/08 08:08:38;;;;;;;3.55;3.45;;;8.10;99.90;;;;;;5065416;28;20551;-76
2022/11/08 08:11:04;;;;;;;3.30;3.20;;;8.20;99.90;;;;;;5052412;28;20029;-75
2022/11/08 08:13:29;;;;;;;6.28;4.68;;;8.30;99.90;;;;;;5071064;28;20047;-75
2022/11/08 08:16:01;;;;;;;3.22;3.13;;;8.50;99.90;;;;;;5059843;28;20555;-75
2022/11/08 08:18:28;;;;;;;2.90;2.80;;;8.60;99.90;;;;;;5065478;28;20529;-75
2022/11/08 08:20:54;;;;;;;3.10;3.00;;;8.70;99.90;;;;;;5052317;28;20036;-75
2022/11/08 08:23:19;;;;;;;2.75;2.65;;;8.80;99.90;;;;;;5057016;28;20013;-75
2022/11/08 08:25:45;;;;;;;2.97;2.88;;;9.00;99.90;;;;;;5059925;28;20112;-75
2022/11/08 08:28:10;;;;;;;2.92;2.72;;;9.20;99.90;;;;;;5065622;28;20029;-75
2022/11/08 08:30:37;;;;;;;2.67;2.58;;;9.30;99.90;;;;;;5052248;28;20021;-75
2022/11/08 08:33:06;;;;;;;2.70;2.60;;;9.40;99.90;;;;;;5050822;28;20039;-75
2022/11/08 08:35:33;;;;;;;2.38;2.28;;;9.40;99.90;;;;;;5052208;28;20029;-75
2022/11/08 08:38:00;;;;;;;3.33;3.22;;;9.40;99.90;;;;;;5050395;28;20039;-75
2022/11/08 08:40:26;;;;;;;2.95;2.85;;;9.60;99.90;;;;;;5064817;28;20433;-75
2022/11/08 08:42:51;;;;;;;2.30;2.20;;;9.60;99.90;;;;;;5052205;28;20025;-75
2022/11/08 08:45:17;;;;;;;2.85;2.75;;;9.80;99.90;;;;;;5055170;28;20029;-76
2022/11/08 08:47:43;;;;;;;2.67;2.58;;;9.80;99.90;;;;;;5080276;22;20130;31
2022/11/08 08:50:09;;;;;;;2.55;2.45;;;9.90;99.90;;;;;;5026008;28;20049;-75
2022/11/08 08:52:34;;;;;;;2.55;2.45;;;10.00;99.90;;;;;;5006388;28;20491;-75
2022/11/08 08:55:00;;;;;;;2.85;2.75;;;10.10;99.90;;;;;;5003293;28;20026;-75
2022/11/08 08:57:26;;;;;;;2.20;2.10;;;10.20;99.90;;;;;;5012071;28;20029;-75
2022/11/08 08:59:51;;;;;;;2.20;2.10;;;10.20;99.90;;;;;;4999482;28;20037;-75
2022/11/08 09:02:17;;;;;;;2.30;2.20;;;10.20;99.90;;;;;;5005872;28;20023;-75
2022/11/08 09:04:42;;;;;;;2.20;2.10;;;10.30;99.90;;;;;;4991311;28;20241;-74
2022/11/08 09:07:08;;;;;;;2.50;2.40;;;10.30;99.90;;;;;;5005522;28;20035;-74
2022/11/08 09:09:35;;;;;;;2.22;2.13;;;10.30;99.90;;;;;;5004792;28;20066;-75
2022/11/08 09:12:00;;;;;;;2.30;2.20;;;10.40;99.90;;;;;;4997556;28;20037;-75
2022/11/08 09:14:27;;;;;;;2.45;2.35;;;10.40;99.90;;;;;;4999685;28;20027;-74
2022/11/08 09:16:52;;;;;;;2.10;2.10;;;10.30;99.90;;;;;;5005628;28;20145;-74
2022/11/08 09:19:18;;;;;;;2.60;2.50;;;10.40;99.90;;;;;;5003655;28;20476;-75
2022/11/08 09:21:43;;;;;;;2.33;2.22;;;10.50;99.90;;;;;;4993031;28;20030;-74
2022/11/08 09:24:09;;;;;;;1.88;1.88;;;10.60;99.90;;;;;;5003621;28;20022;-73
2022/11/08 09:26:34;;;;;;;1.75;1.75;;;10.70;99.90;;;;;;4997652;28;20026;-73
2022/11/08 09:29:00;;;;;;;1.63;1.63;;;10.80;99.90;;;;;;4998280;28;20037;-73
2022/11/08 09:31:26;;;;;;;2.03;2.03;;;10.90;99.90;;;;;;5005668;28;20019;-74
2022/11/08 09:33:51;;;;;;;1.50;1.50;;;10.90;99.90;;;;;;5004535;28;20022;-74
2022/11/08 09:36:17;;;;;;;1.80;1.80;;;10.80;99.90;;;;;;4998913;28;20041;-74
2022/11/08 09:38:42;;;;;;;1.98;1.98;;;10.90;99.90;;;;;;4999684;28;20494;-74
2022/11/08 09:41:49;;;;;;;1.20;1.20;;;10.90;99.90;;;;;;5003892;28;20076;-73
2022/11/08 09:44:42;;;;;;;1.40;1.40;;;11.00;99.90;;;;;;5004208;28;20039;-75
2022/11/08 09:47:23;;;;;;;1.10;1.10;;;11.20;99.90;;;;;;4991904;28;20110;-75
2022/11/08 09:50:01;;;;;;;2.45;2.25;;;11.20;99.90;;;;;;5001982;28;20124;-74
2022/11/08 09:52:28;;;;;;;1.98;0.88;;;11.20;99.90;;;;;;4997044;28;20123;-75
2022/11/08 09:55:08;;;;;;;0.80;0.80;;;11.30;99.90;;;;;;4998936;28;20026;-75
2022/11/08 09:57:44;;;;;;;0.60;0.60;;;11.40;99.90;;;;;;4991999;28;20041;-75
2022/11/08 10:00:12;;;;;;;0.70;0.70;;;11.40;99.90;;;;;;5003895;28;20124;-74
2022/11/08 10:02:38;;;;;;;0.60;0.60;;;11.60;99.90;;;;;;4999707;28;20472;-74
2022/11/08 10:05:10;;;;;;;0.40;0.40;;;11.70;99.90;;;;;;4999142;28;20105;-74
2022/11/08 10:07:54;;;;;;;0.77;0.63;;;11.80;99.90;;;;;;5013930;28;20021;-74
2022/11/08 10:10:39;;;;;;;0.40;0.40;;;11.90;99.90;;;;;;5002163;28;20029;-75
2022/11/08 10:13:53;;;;;;;0.50;0.50;;;11.90;99.90;;;;;;5000748;28;20065;-75
2022/11/08 10:16:45;;;;;;;0.50;0.50;;;11.80;99.90;;;;;;4993452;28;20038;-75
2022/11/08 10:19:50;;;;;;;0.60;0.60;;;11.70;99.90;;;;;;5001883;28;20392;-75
2022/11/08 10:22:19;;;;;;;1.40;1.27;;;11.90;99.90;;;;;;5004390;28;20028;-75
2022/11/08 10:24:56;;;;;;;0.43;0.43;;;11.90;99.90;;;;;;5001922;28;20101;-75
2022/11/08 10:27:35;;;;;;;0.98;0.98;;;12.10;99.90;;;;;;5002647;28;20076;-74
2022/11/08 10:30:05;;;;;;;0.70;0.70;;;11.90;99.90;;;;;;4990923;28;20025;-75
2022/11/08 10:32:32;;;;;;;0.40;0.40;;;11.90;99.90;;;;;;5002805;28;20022;-74
2022/11/08 10:35:10;;;;;;;0.60;0.60;;;11.90;99.90;;;;;;5007137;28;20076;-75
2022/11/08 10:37:37;;;;;;;0.35;0.35;;;12.10;99.90;;;;;;5006590;28;20463;-74
2022/11/08 10:40:23;;;;;;;0.30;0.30;;;12.10;99.90;;;;;;5003630;28;20415;-75
2022/11/08 10:42:59;;;;;;;0.30;0.30;;;12.30;99.90;;;;;;5001839;28;20026;-75
2022/11/08 10:45:25;;;;;;;;;;;12.30;99.90;;;;;;5000803;28;20054;-75
2022/11/08 10:47:52;;;;;;;0.40;0.40;;;12.40;99.90;;;;;;5005369;28;20354;-75
2022/11/08 10:50:21;;;;;;;0.30;0.30;;;12.20;99.90;;;;;;5006763;28;20034;-74
2022/11/08 10:52:56;;;;;;;0.98;0.95;;;12.30;99.90;;;;;;5001790;28;20034;-75
2022/11/08 10:55:29;;;;;;;4.85;1.48;;;12.50;99.90;;;;;;5000220;28;20062;-74
2022/11/08 10:57:55;;;;;;;0.22;0.22;;;12.60;99.90;;;;;;5003918;28;20033;-74
2022/11/08 11:00:21;;;;;;;0.20;0.20;;;12.60;99.90;;;;;;5007992;28;20030;-75
2022/11/08 11:02:58;;;;;;;0.20;0.20;;;12.60;99.90;;;;;;4994776;28;20030;-75
2022/11/08 11:05:42;;;;;;;0.22;0.22;;;12.70;99.90;;;;;;4999621;28;20026;-75
2022/11/08 11:08:07;;;;;;;0.38;0.38;;;12.80;99.90;;;;;;5000708;28;20388;-74
2022/11/08 11:10:38;;;;;;;4.13;1.80;;;12.70;99.90;;;;;;5013020;28;20034;-74
2022/11/08 11:13:08;;;;;;;1.00;1.00;;;12.60;99.90;;;;;;5012557;28;20029;-75
2022/11/08 11:15:33;;;;;;;0.20;0.20;;;12.50;99.90;;;;;;5001868;28;20749;-74
2022/11/08 11:17:59;;;;;;;0.30;0.30;;;12.50;99.90;;;;;;4998251;28;20125;-75
2022/11/08 11:20:25;;;;;;;0.30;0.30;;;12.60;99.90;;;;;;5005492;28;20042;-74
2022/11/08 11:22:52;;;;;;;0.30;0.30;;;12.70;99.90;;;;;;5005972;28;20030;-75
2022/11/08 11:25:22;;;;;;;0.25;0.25;;;12.70;99.90;;;;;;4994215;28;20026;-75
2022/11/08 11:27:59;;;;;;;0.47;0.47;;;12.80;99.90;;;;;;5007237;28;20508;-75
2022/11/08 11:30:33;;;;;;;0.20;0.20;;;12.90;99.90;;;;;;5004125;28;20029;-74
2022/11/08 11:32:58;;;;;;;0.20;0.20;;;12.90;99.90;;;;;;4999421;28;20026;-75
2022/11/08 11:35:30;;;;;;;0.20;0.20;;;13.00;99.90;;;;;;5002748;28;20037;-75
2022/11/08 11:37:57;;;;;;;0.22;0.22;;;13.30;99.90;;;;;;5007220;28;20042;-75
2022/11/08 11:40:34;;;;;;;0.20;0.20;;;13.30;99.90;;;;;;5005762;28;20030;-75
2022/11/08 11:43:05;;;;;;;0.20;0.20;;;13.30;99.90;;;;;;4988085;28;20029;-75
2022/11/08 11:45:39;;;;;;;0.75;0.57;;;13.50;99.90;;;;;;5000316;28;20056;-75
2022/11/08 11:48:13;;;;;;;0.25;0.25;;;13.40;99.90;;;;;;5004839;28;20121;-75
2022/11/08 11:50:43;;;;;;;0.10;0.10;;;13.50;99.90;;;;;;5007160;28;20034;-75
2022/11/08 11:53:15;;;;;;;0.40;0.40;;;13.50;99.90;;;;;;5004138;28;20412;-74
2022/11/08 11:56:18;;;;;;;0.20;0.20;;;13.60;99.90;;;;;;4994513;28;20037;-75
2022/11/08 11:59:02;;;;;;;0.90;0.20;;;13.60;99.90;;;;;;4992344;28;20035;-75
2022/11/08 12:02:07;;;;;;;1.20;1.20;;;13.60;99.90;;;;;;5005028;28;20484;-75
2022/11/08 12:04:41;;;;;;;0.20;0.20;;;13.60;99.90;;;;;;4995759;28;20054;-75
2022/11/08 12:07:23;;;;;;;0.20;0.20;;;13.60;99.90;;;;;;4999614;28;20022;-74
2022/11/08 12:10:14;;;;;;;0.20;0.20;;;13.80;99.90;;;;;;4998470;28;20049;-75
2022/11/08 12:12:48;;;;;;;0.10;0.10;;;13.60;99.90;;;;;;5013180;28;20026;-75
2022/11/08 12:15:28;;;;;;;0.30;0.30;;;13.60;99.90;;;;;;4993041;28;20030;-74
2022/11/08 12:18:18;;;;;;;0.30;0.30;;;13.60;99.90;;;;;;5004929;28;20029;-75
2022/11/08 12:21:10;;;;;;;0.20;0.20;;;13.60;99.90;;;;;;5002588;28;20034;-75
2022/11/08 12:23:49;;;;;;;0.68;0.45;;;13.70;99.90;;;;;;5000640;28;20026;-75
2022/11/08 12:26:31;;;;;;;0.20;0.20;;;13.70;99.90;;;;;;4999647;28;20116;-75
2022/11/08 12:29:20;;;;;;;1.00;0.90;;;13.70;99.90;;;;;;4999696;28;20023;-75
2022/11/08 12:31:58;;;;;;;0.20;0.20;;;13.70;99.90;;;;;;4987891;28;20125;-74
2022/11/08 12:35:01;;;;;;;0.25;0.25;;;13.50;99.90;;;;;;4999471;28;20025;-75
2022/11/08 12:37:36;;;;;;;0.10;0.10;;;13.60;99.90;;;;;;4999292;28;20086;-74
2022/11/08 12:40:23;;;;;;;0.20;0.20;;;13.60;99.90;;;;;;5003565;28;20030;-74
2022/11/08 12:43:01;;;;;;;0.10;0.10;;;13.80;99.90;;;;;;5006044;28;20751;-75
2022/11/08 12:46:09;;;;;;;0.10;0.10;;;13.80;99.90;;;;;;5006014;28;20022;-74
2022/11/08 12:49:17;;;;;;;0.35;0.35;;;13.70;99.90;;;;;;5005014;28;20042;-74
2022/11/08 12:52:00;;;;;;;0.20;0.20;;;13.90;99.90;;;;;;4996738;28;20360;-74
2022/11/08 12:54:37;;;;;;;0.40;0.40;;;14.00;99.90;;;;;;4988368;28;20018;-74
2022/11/08 12:57:13;;;;;;;0.10;0.10;;;14.10;99.90;;;;;;4993396;28;20033;-74
2022/11/08 12:59:55;;;;;;;0.10;0.10;;;14.30;99.90;;;;;;5002534;28;20026;-74
2022/11/08 13:02:24;;;;;;;2.15;0.40;;;14.10;99.90;;;;;;4986970;28;20057;-75
2022/11/08 13:05:15;;;;;;;0.10;0.10;;;14.10;99.90;;;;;;4999125;28;20027;-74
2022/11/08 13:07:58;;;;;;;0.20;0.20;;;14.10;99.90;;;;;;5000728;28;20070;-75
2022/11/08 13:10:33;;;;;;;0.10;0.10;;;14.30;99.90;;;;;;4986305;28;20469;-74
2022/11/08 13:13:28;;;;;;;0.10;0.10;;;14.30;99.90;;;;;;5010922;28;20034;-74
2022/11/08 13:16:16;;;;;;;0.40;0.40;;;14.40;99.90;;;;;;4986545;28;20141;-74
2022/11/08 13:18:55;;;;;;;0.13;0.13;;;14.80;99.90;;;;;;4988272;28;20117;-75
2022/11/08 13:21:26;;;;;;;0.20;0.20;;;14.60;99.90;;;;;;4997541;28;20022;-74
2022/11/08 13:24:01;;;;;;;0.20;0.20;;;14.60;99.90;;;;;;5009509;28;20033;-75
2022/11/08 13:26:29;;;;;;;0.40;0.40;;;14.50;99.90;;;;;;4998162;28;20050;-74